Time;durP1;ratioP1;P1;durP2;ratioP2;P2;SDS_P1;SDS_P2;PMS_P1;PMS_P2;Temp;Humidity;BMP_temperature;BMP_pressure;BME280_temperature;BME280_humidity;BME280_pressure;Samples;Min_cycle;Max_cycle;Signal;HPM_P1;HPM_P2
2022/03/15 00:00:34;;;;;;;;;;;2.90;61.90;;;;;;5070019;27;83628;-48
2022/03/15 00:03:00;;;;;;;;;;;2.90;62.00;;;;;;5070161;27;81887;-47
2022/03/15 00:05:26;;;;;;;;;;;2.90;62.00;;;;;;5072167;27;82909;-47
2022/03/15 00:07:52;;;;;;;;;;;2.80;62.00;;;;;;5070153;27;81707;-47
2022/03/15 00:10:18;;;;;;;;;;;2.90;62.10;;;;;;5069477;27;83023;-46
2022/03/15 00:12:44;;;;;;;;;;;2.80;62.00;;;;;;5069841;27;83557;-47
2022/03/15 00:15:11;;;;;;;;;;;2.80;62.00;;;;;;5070017;27;81891;-47
2022/03/15 00:17:37;;;;;;;;;;;2.80;62.00;;;;;;5070122;27;81803;-47
2022/03/15 00:20:05;;;;;;;;;;;2.80;62.00;;;;;;5069723;27;83403;-47
2022/03/15 00:22:35;;;;;;;;;;;2.80;62.00;;;;;;5070433;27;81157;-47
2022/03/15 00:25:02;;;;;;;;;;;2.80;62.10;;;;;;5069960;27;82119;-47
2022/03/15 00:27:28;;;;;;;;;;;2.70;62.10;;;;;;5072399;27;83465;-47
2022/03/15 00:29:54;;;;;;;;;;;2.70;62.10;;;;;;5069300;27;82917;-47
2022/03/15 00:32:20;;;;;;;;;;;2.70;62.10;;;;;;5071798;27;82742;-47
2022/03/15 00:34:47;;;;;;;;;;;2.70;62.20;;;;;;5073500;27;81938;-47
2022/03/15 00:37:13;;;;;;;;;;;2.70;62.20;;;;;;5073123;27;81901;-47
2022/03/15 00:39:39;;;;;;;;;;;2.70;62.20;;;;;;5073158;27;83431;-47
2022/03/15 00:42:05;;;;;;;;;;;2.60;62.20;;;;;;5073375;27;81929;-47
2022/03/15 00:44:30;;;;;;;;;;;2.70;62.10;;;;;;5073542;27;81871;-47
2022/03/15 00:46:56;;;;;;;;;;;2.70;62.20;;;;;;5076455;27;82503;-47
2022/03/15 00:49:23;;;;;;;;;;;2.60;62.10;;;;;;5073365;27;82118;-48
2022/03/15 00:51:50;;;;;;;;;;;2.60;62.20;;;;;;5072900;27;83551;-47
2022/03/15 00:54:16;;;;;;;;;;;2.60;62.30;;;;;;5072546;27;82774;-47
2022/03/15 00:56:42;;;;;;;;;;;2.60;62.30;;;;;;5073359;27;82707;-48
2022/03/15 00:59:09;;;;;;;;;;;2.60;62.30;;;;;;5073150;27;81874;-48
2022/03/15 01:01:35;;;;;;;;;;;2.60;62.30;;;;;;5073110;27;82048;-47
2022/03/15 01:04:01;;;;;;;;;;;2.50;62.20;;;;;;5072989;27;82858;-47
2022/03/15 01:06:27;;;;;;;;;;;2.60;62.30;;;;;;5072787;27;82581;-47
2022/03/15 01:08:52;;;;;;;;;;;2.50;62.20;;;;;;5075674;27;81920;-47
2022/03/15 01:11:18;;;;;;;;;;;2.50;62.20;;;;;;5073066;27;81470;-47
2022/03/15 01:13:44;;;;;;;;;;;2.50;62.30;;;;;;5072797;27;82050;-47
2022/03/15 01:16:09;;;;;;;;;;;2.50;62.30;;;;;;5073098;27;81985;-47
2022/03/15 01:18:36;;;;;;;;;;;2.40;62.20;;;;;;5071992;27;83526;-47
2022/03/15 01:21:02;;;;;;;;;;;2.50;62.30;;;;;;5072727;27;81928;-46
2022/03/15 01:23:28;;;;;;;;;;;2.50;62.30;;;;;;5073010;27;81901;-47
2022/03/15 01:25:55;;;;;;;;;;;2.40;62.20;;;;;;5072541;27;83613;-47
2022/03/15 01:28:21;;;;;;;;;;;2.40;62.30;;;;;;5072585;27;81841;-47
2022/03/15 01:30:46;;;;;;;;;;;2.40;62.30;;;;;;5075198;27;82587;-47
2022/03/15 01:33:12;;;;;;;;;;;2.40;62.30;;;;;;5072663;27;81804;-47
2022/03/15 01:35:38;;;;;;;;;;;2.40;62.30;;;;;;5072960;27;83127;-47
2022/03/15 01:38:04;;;;;;;;;;;2.40;62.30;;;;;;5072392;27;82443;-47
2022/03/15 01:40:29;;;;;;;;;;;2.30;62.40;;;;;;5071673;27;81918;-46
2022/03/15 01:42:55;;;;;;;;;;;2.30;62.30;;;;;;5071262;27;82795;-47
2022/03/15 01:45:29;;;;;;;;;;;2.30;62.50;;;;;;5072399;27;82858;-48
2022/03/15 01:47:55;;;;;;;;;;;2.30;62.40;;;;;;5072304;27;82059;-47
2022/03/15 01:50:21;;;;;;;;;;;2.30;62.40;;;;;;5072495;27;81810;-46
2022/03/15 01:52:47;;;;;;;;;;;2.30;62.40;;;;;;5074739;27;82633;-47
2022/03/15 01:55:13;;;;;;;;;;;2.30;62.30;;;;;;5072221;27;83224;-47
2022/03/15 01:57:39;;;;;;;;;;;2.30;62.40;;;;;;5071833;27;83675;-47
2022/03/15 02:00:06;;;;;;;;;;;2.30;62.40;;;;;;5072613;27;81099;-46
2022/03/15 02:02:31;;;;;;;;;;;2.20;62.50;;;;;;5072115;27;82221;-47
2022/03/15 02:04:58;;;;;;;;;;;2.20;62.50;;;;;;5071730;27;82639;-47
2022/03/15 02:07:23;;;;;;;;;;;2.20;62.50;;;;;;5071355;27;82878;-47
2022/03/15 02:09:50;;;;;;;;;;;2.20;62.50;;;;;;5071851;27;82108;-47
2022/03/15 02:12:15;;;;;;;;;;;2.20;62.50;;;;;;5071638;27;83579;-47
2022/03/15 02:14:41;;;;;;;;;;;2.20;62.40;;;;;;5074908;27;81812;-47
2022/03/15 02:17:07;;;;;;;;;;;2.20;62.40;;;;;;5071932;27;82437;-46
2022/03/15 02:19:33;;;;;;;;;;;2.10;62.40;;;;;;5071454;27;81866;-47
2022/03/15 02:21:59;;;;;;;;;;;2.20;62.40;;;;;;5071743;27;82851;-47
2022/03/15 02:24:25;;;;;;;;;;;2.10;62.40;;;;;;5072129;27;82806;-47
2022/03/15 02:26:51;;;;;;;;;;;2.20;62.30;;;;;;5071980;27;81813;-47
2022/03/15 02:29:17;;;;;;;;;;;2.10;62.40;;;;;;5071616;27;82926;-48
2022/03/15 02:31:44;;;;;;;;;;;2.10;62.40;;;;;;5070909;27;83426;-47
2022/03/15 02:34:10;;;;;;;;;;;2.10;62.40;;;;;;5071557;27;81841;-47
2022/03/15 02:36:35;;;;;;;;;;;2.10;62.40;;;;;;5074077;27;83084;-46
2022/03/15 02:39:01;;;;;;;;;;;2.00;62.40;;;;;;5071581;27;81740;-46
2022/03/15 02:41:27;;;;;;;;;;;2.10;62.50;;;;;;5071471;27;81807;-46
2022/03/15 02:43:56;;;;;;;;;;;2.00;62.40;;;;;;5071057;27;82497;-47
2022/03/15 02:46:22;;;;;;;;;;;2.00;62.40;;;;;;5071666;27;82000;-46
2022/03/15 02:48:48;;;;;;;;;;;2.00;62.40;;;;;;5071792;27;82944;-46
2022/03/15 02:51:15;;;;;;;;;;;2.00;62.50;;;;;;5071049;27;83505;-47
2022/03/15 02:53:42;;;;;;;;;;;2.00;62.50;;;;;;5070592;27;81868;-46
2022/03/15 02:56:11;;;;;;;;;;;2.00;62.40;;;;;;5072944;27;82755;-47
2022/03/15 02:58:37;;;;;;;;;;;1.90;62.50;;;;;;5071217;27;81900;-46
2022/03/15 03:01:04;;;;;;;;;;;1.90;62.30;;;;;;5071413;27;81775;-47
2022/03/15 03:03:30;;;;;;;;;;;1.90;62.40;;;;;;5070924;27;82664;-47
2022/03/15 03:05:56;;;;;;;;;;;1.90;62.30;;;;;;5071068;27;81797;-47
2022/03/15 03:08:25;;;;;;;;;;;1.90;62.30;;;;;;5071026;27;82812;-47
2022/03/15 03:10:52;;;;;;;;;;;1.90;62.40;;;;;;5070505;27;83560;-46
2022/03/15 03:13:18;;;;;;;;;;;1.80;62.40;;;;;;5071494;27;81046;-46
2022/03/15 03:15:44;;;;;;;;;;;1.90;62.50;;;;;;5071081;27;81972;-46
2022/03/15 03:18:10;;;;;;;;;;;1.80;62.30;;;;;;5073454;27;82702;-46
2022/03/15 03:20:35;;;;;;;;;;;1.80;62.30;;;;;;5070487;27;83045;-46
2022/03/15 03:23:01;;;;;;;;;;;1.80;62.30;;;;;;5070873;27;82443;-46
2022/03/15 03:25:30;;;;;;;;;;;1.80;62.40;;;;;;5070916;27;81970;-47
2022/03/15 03:27:57;;;;;;;;;;;1.80;62.60;;;;;;5070826;27;82914;-47
2022/03/15 03:30:23;;;;;;;;;;;1.80;62.50;;;;;;5070368;27;83643;-46
2022/03/15 03:32:49;;;;;;;;;;;1.80;62.40;;;;;;5070568;27;81832;-47
2022/03/15 03:35:14;;;;;;;;;;;1.80;62.60;;;;;;5070864;27;81835;-47
2022/03/15 03:37:40;;;;;;;;;;;1.70;62.50;;;;;;5071011;27;81734;-46
2022/03/15 03:40:07;;;;;;;;;;;1.80;62.50;;;;;;5073603;27;82005;-47
2022/03/15 03:42:34;;;;;;;;;;;1.70;62.40;;;;;;5070305;27;83573;-47
2022/03/15 03:44:59;;;;;;;;;;;1.70;62.30;;;;;;5069767;27;82780;-46
2022/03/15 03:47:25;;;;;;;;;;;1.70;62.50;;;;;;5070707;27;82644;-46
2022/03/15 03:49:51;;;;;;;;;;;1.70;62.50;;;;;;5070268;27;82418;-47
2022/03/15 03:52:17;;;;;;;;;;;1.70;62.50;;;;;;5070401;27;81821;-46
2022/03/15 03:54:42;;;;;;;;;;;1.70;62.60;;;;;;5070425;27;82863;-47
2022/03/15 03:57:08;;;;;;;;;;;1.60;62.40;;;;;;5070065;27;83669;-47
2022/03/15 03:59:34;;;;;;;;;;;1.60;62.50;;;;;;5070381;27;81785;-46
2022/03/15 04:01:59;;;;;;;;;;;1.60;62.50;;;;;;5073490;27;81899;-46
2022/03/15 04:04:25;;;;;;;;;;;1.60;62.50;;;;;;5070411;27;81814;-47
2022/03/15 04:06:51;;;;;;;;;;;1.60;62.50;;;;;;5069944;27;82952;-46
2022/03/15 04:09:17;;;;;;;;;;;1.60;62.50;;;;;;5068619;27;84525;-47
2022/03/15 04:11:43;;;;;;;;;;;1.50;62.40;;;;;;5070016;27;81848;-47
2022/03/15 04:14:11;;;;;;;;;;;1.50;62.50;;;;;;5070137;27;82943;-46
2022/03/15 04:16:37;;;;;;;;;;;1.50;62.40;;;;;;5069841;27;82548;-46
2022/03/15 04:19:03;;;;;;;;;;;1.50;62.50;;;;;;5070026;27;81801;-47
2022/03/15 04:21:28;;;;;;;;;;;1.50;62.60;;;;;;5070342;27;81805;-47
2022/03/15 04:23:55;;;;;;;;;;;1.50;62.70;;;;;;5072619;27;82446;-47
2022/03/15 04:26:21;;;;;;;;;;;1.50;62.70;;;;;;5070362;27;82947;-47
2022/03/15 04:28:46;;;;;;;;;;;1.40;62.70;;;;;;5070018;27;82878;-46
2022/03/15 04:31:13;;;;;;;;;;;1.40;62.70;;;;;;5069519;27;81781;-46
2022/03/15 04:33:39;;;;;;;;;;;1.40;62.70;;;;;;5069297;27;83165;-46
2022/03/15 04:36:06;;;;;;;;;;;1.40;62.70;;;;;;5069620;27;83557;-46
2022/03/15 04:38:32;;;;;;;;;;;1.40;62.80;;;;;;5070015;27;81966;-46
2022/03/15 04:40:59;;;;;;;;;;;1.40;62.70;;;;;;5069930;27;82649;-46
2022/03/15 04:43:25;;;;;;;;;;;1.40;62.60;;;;;;5069557;27;83636;-46
2022/03/15 04:45:51;;;;;;;;;;;1.30;62.60;;;;;;5072670;27;81811;-46
2022/03/15 04:48:18;;;;;;;;;;;1.30;62.70;;;;;;5069526;27;83502;-46
2022/03/15 04:50:44;;;;;;;;;;;1.30;62.90;;;;;;5070111;27;81128;-46
2022/03/15 04:53:09;;;;;;;;;;;1.30;62.80;;;;;;5068693;27;81771;-46
2022/03/15 04:55:35;;;;;;;;;;;1.30;62.80;;;;;;5069679;27;81803;-46
2022/03/15 04:58:01;;;;;;;;;;;1.30;62.70;;;;;;5069044;27;82735;-46
2022/03/15 05:00:26;;;;;;;;;;;1.30;62.70;;;;;;5069645;27;83992;-45
2022/03/15 05:02:52;;;;;;;;;;;1.30;62.70;;;;;;5069263;27;83636;-46
2022/03/15 05:05:18;;;;;;;;;;;1.20;62.70;;;;;;5072268;27;81622;-46
2022/03/15 05:07:43;;;;;;;;;;;1.20;62.70;;;;;;5069623;27;82334;-46
2022/03/15 05:12:54;;;;;;;;;;;1.20;62.70;;;;;;5069926;27;81791;-46
2022/03/15 05:15:20;;;;;;;;;;;1.20;62.60;;;;;;5069898;27;81745;-46
2022/03/15 05:17:46;;;;;;;;;;;1.20;62.70;;;;;;5070589;27;81821;-46
2022/03/15 05:20:12;;;;;;;;;;;1.20;62.80;;;;;;5073096;27;82053;-46
2022/03/15 05:22:37;;;;;;;;;;;1.20;62.70;;;;;;5071890;27;84498;-46
2022/03/15 05:25:03;;;;;;;;;;;1.20;62.60;;;;;;5072723;27;81858;-46
2022/03/15 05:27:32;;;;;;;;;;;1.20;62.60;;;;;;5075261;27;82279;-46
2022/03/15 05:29:57;;;;;;;;;;;1.20;62.60;;;;;;5072816;27;81941;-46
2022/03/15 05:32:24;;;;;;;;;;;1.20;62.60;;;;;;5072574;27;82944;-47
2022/03/15 05:34:50;;;;;;;;;;;1.20;62.60;;;;;;5072221;27;83727;-46
2022/03/15 05:37:16;;;;;;;;;;;1.10;62.70;;;;;;5072826;27;82060;-46
2022/03/15 05:39:41;;;;;;;;;;;1.10;62.60;;;;;;5072985;27;82747;-46
2022/03/15 05:42:07;;;;;;;;;;;1.10;62.70;;;;;;5072231;27;82618;-46
2022/03/15 05:44:33;;;;;;;;;;;1.10;62.60;;;;;;5072746;27;81819;-46
2022/03/15 05:46:59;;;;;;;;;;;1.10;62.60;;;;;;5071749;27;82798;-46
2022/03/15 05:49:26;;;;;;;;;;;1.10;62.70;;;;;;5075161;27;81760;-46
2022/03/15 05:51:51;;;;;;;;;;;1.10;62.60;;;;;;5072059;27;82864;-46
2022/03/15 05:54:17;;;;;;;;;;;1.10;62.70;;;;;;5072007;27;83426;-48
2022/03/15 05:56:43;;;;;;;;;;;1.10;62.60;;;;;;5072452;27;82120;-46
2022/03/15 05:59:09;;;;;;;;;;;1.10;62.50;;;;;;5072098;27;82728;-47
2022/03/15 06:01:35;;;;;;;;;;;1.10;62.60;;;;;;5071860;27;83581;-47
2022/03/15 06:04:01;;;;;;;;;;;1.10;62.40;;;;;;5072863;27;81140;-46
2022/03/15 06:06:26;;;;;;;;;;;1.10;62.60;;;;;;5072485;27;81807;-46
2022/03/15 06:08:52;;;;;;;;;;;1.10;63.10;;;;;;5071824;27;82552;-46
2022/03/15 06:11:19;;;;;;;;;;;1.10;62.50;;;;;;5073704;27;82779;-46
2022/03/15 06:13:45;;;;;;;;;;;1.10;62.40;;;;;;5071561;27;82661;-45
2022/03/15 06:16:11;;;;;;;;;;;1.10;62.40;;;;;;5072184;27;81821;-46
2022/03/15 06:18:37;;;;;;;;;;;1.10;62.40;;;;;;5071901;27;82949;-45
2022/03/15 06:21:03;;;;;;;;;;;1.00;62.50;;;;;;5071616;27;83349;-48
2022/03/15 06:23:29;;;;;;;;;;;1.00;62.60;;;;;;5071748;27;81838;-48
2022/03/15 06:25:55;;;;;;;;;;;1.10;62.60;;;;;;5071674;27;82929;-45
2022/03/15 06:28:20;;;;;;;;;;;1.10;62.40;;;;;;5071979;27;82923;-45
2022/03/15 06:30:46;;;;;;;;;;;1.10;63.00;;;;;;5071891;27;81732;-45
2022/03/15 06:33:13;;;;;;;;;;;1.10;62.40;;;;;;5074222;27;82966;-45
2022/03/15 06:35:38;;;;;;;;;;;1.10;62.40;;;;;;5071251;27;82772;-46
2022/03/15 06:38:04;;;;;;;;;;;1.10;62.40;;;;;;5071535;27;83753;-45
2022/03/15 06:40:32;;;;;;;;;;;1.10;62.40;;;;;;5071712;27;82479;-45
2022/03/15 06:42:58;;;;;;;;;;;1.10;62.40;;;;;;5071505;27;81821;-46
2022/03/15 06:45:24;;;;;;;;;;;1.10;62.30;;;;;;5071535;27;82851;-48
2022/03/15 06:47:50;;;;;;;;;;;1.10;62.50;;;;;;5071102;27;83824;-47
2022/03/15 06:50:16;;;;;;;;;;;1.10;62.30;;;;;;5071354;27;81789;-47
2022/03/15 06:52:43;;;;;;;;;;;1.10;62.30;;;;;;5074448;27;82018;-45
2022/03/15 06:55:10;;;;;;;;;;;1.10;62.20;;;;;;5071685;27;81813;-47
2022/03/15 06:57:36;;;;;;;;;;;1.10;62.30;;;;;;5071306;27;82938;-47
2022/03/15 07:00:05;;;;;;;;;;;1.10;62.30;;;;;;5070512;27;83293;-47
2022/03/15 07:02:32;;;;;;;;;;;1.10;62.40;;;;;;5071222;27;82029;-47
2022/03/15 07:04:58;;;;;;;;;;;1.10;62.50;;;;;;5071258;27;82134;-47
2022/03/15 07:07:23;;;;;;;;;;;1.10;62.40;;;;;;5070835;27;83681;-47
2022/03/15 07:09:49;;;;;;;;;;;1.00;62.40;;;;;;5070888;27;81793;-47
2022/03/15 07:12:15;;;;;;;;;;;1.10;62.50;;;;;;5071073;27;83105;-47
2022/03/15 07:14:43;;;;;;;;;;;1.10;62.40;;;;;;5073473;27;83368;-47
2022/03/15 07:17:08;;;;;;;;;;;1.10;62.50;;;;;;5071414;27;82887;-47
2022/03/15 07:19:34;;;;;;;;;;;1.10;62.50;;;;;;5070973;27;81761;-47
2022/03/15 07:22:01;;;;;;;;;;;1.10;62.60;;;;;;5070930;27;81783;-47
2022/03/15 07:24:26;;;;;;;;;;;1.00;62.60;;;;;;5070324;27;82711;-48
2022/03/15 07:26:52;;;;;;;;;;;1.00;62.70;;;;;;5070547;27;82620;-48
2022/03/15 07:29:18;;;;;;;;;;;1.10;62.70;;;;;;5070655;27;81780;-48
2022/03/15 07:31:44;;;;;;;;;;;1.10;62.70;;;;;;5070909;27;81748;-47
2022/03/15 07:34:09;;;;;;;;;;;1.00;62.70;;;;;;5070395;27;82650;-47
2022/03/15 07:36:35;;;;;;;;;;;1.10;62.70;;;;;;5073463;27;81840;-45
2022/03/15 07:39:03;;;;;;;;;;;1.10;62.70;;;;;;5070495;27;82518;-47
2022/03/15 07:41:29;;;;;;;;;;;1.10;62.70;;;;;;5070466;27;81049;-48
2022/03/15 07:43:55;;;;;;;;;;;1.10;62.70;;;;;;5070601;27;81809;-49
2022/03/15 07:46:21;;;;;;;;;;;1.10;62.70;;;;;;5070362;27;82454;-48
2022/03/15 07:48:46;;;;;;;;;;;1.10;62.70;;;;;;5069897;27;82865;-47
2022/03/15 07:51:12;;;;;;;;;;;1.10;62.70;;;;;;5070303;27;83699;-50
2022/03/15 07:53:37;;;;;;;;;;;1.10;62.70;;;;;;5070221;27;83450;-46
2022/03/15 07:56:03;;;;;;;;;;;1.10;62.80;;;;;;5070265;27;82286;-47
2022/03/15 07:58:29;;;;;;;;;;;1.10;63.00;;;;;;5072785;27;83212;-47
2022/03/15 08:00:57;;;;;;;;;;;1.00;63.00;;;;;;5070154;27;81983;-50
2022/03/15 08:03:22;;;;;;;;;;;1.00;63.10;;;;;;5070276;27;82974;-47
2022/03/15 08:05:48;;;;;;;;;;;1.00;63.20;;;;;;5070387;27;82634;-47
2022/03/15 08:08:15;;;;;;;;;;;1.00;63.20;;;;;;5070174;27;81812;-47
2022/03/15 08:10:41;;;;;;;;;;;0.90;63.50;;;;;;5069339;27;82192;-48
2022/03/15 08:13:07;;;;;;;;;;;0.90;63.70;;;;;;5069274;27;84470;-47
2022/03/15 08:15:32;;;;;;;;;;;0.90;63.60;;;;;;5070413;27;81784;-47
2022/03/15 08:17:58;;;;;;;;;;;1.00;63.60;;;;;;5070292;27;81810;-48
2022/03/15 08:20:27;;;;;;;;;;;1.00;63.60;;;;;;5072563;27;83524;-47
2022/03/15 08:22:55;;;;;;;;;;;1.00;63.70;;;;;;5070072;27;82096;-47
2022/03/15 08:25:21;;;;;;;;;;;1.00;63.60;;;;;;5069764;27;83295;-47
2022/03/15 08:27:47;;;;;;;;;;;1.00;63.40;;;;;;5070033;27;81837;-47
2022/03/15 08:30:13;;;;;;;;;;;1.00;63.40;;;;;;5070287;27;82880;-51
2022/03/15 08:32:39;;;;;;;;;;;1.00;62.50;;;;;;5069662;27;83622;-50
2022/03/15 08:35:05;;;;;;;;;;;1.00;62.90;;;;;;5069975;27;81838;-48
2022/03/15 08:37:31;;;;;;;;;;;1.00;63.40;;;;;;5069289;27;82734;-48
2022/03/15 08:39:56;;;;;;;;;;;1.10;63.40;;;;;;5069651;27;83440;-48
2022/03/15 08:42:22;;;;;;;;;;;1.10;63.30;;;;;;5072499;27;81841;-49
2022/03/15 08:44:48;;;;;;;;;;;1.10;63.20;;;;;;5069974;27;82026;-48
2022/03/15 08:47:14;;;;;;;;;;;1.20;63.20;;;;;;5070185;27;81791;-49
2022/03/15 08:49:41;;;;;;;;;;;1.20;63.20;;;;;;5069553;27;82962;-48
2022/03/15 08:52:08;;;;;;;;;;;1.20;63.20;;;;;;5069749;27;83691;-49
2022/03/15 08:54:34;;;;;;;;;;;1.20;63.20;;;;;;5073670;27;81039;-48
2022/03/15 08:57:00;;;;;;;;;;;1.20;63.30;;;;;;5073094;27;82303;-48
2022/03/15 08:59:26;;;;;;;;;;;1.20;63.20;;;;;;5073017;27;82830;-48
2022/03/15 09:01:52;;;;;;;;;;;1.20;63.30;;;;;;5075163;27;82762;-50
2022/03/15 09:04:18;;;;;;;;;;;1.20;63.30;;;;;;5072832;27;83362;-48
2022/03/15 09:06:43;;;;;;;;;;;1.20;63.30;;;;;;5073216;27;81827;-50
2022/03/15 09:09:09;;;;;;;;;;;1.20;63.30;;;;;;5072706;27;82029;-48
2022/03/15 09:11:35;;;;;;;;;;;1.20;63.30;;;;;;5072964;27;81779;-48
2022/03/15 09:14:00;;;;;;;;;;;1.20;63.40;;;;;;5072893;27;81831;-52
2022/03/15 09:16:26;;;;;;;;;;;1.20;63.40;;;;;;5073150;27;81985;-49
2022/03/15 09:18:52;;;;;;;;;;;1.20;63.40;;;;;;5073012;27;82708;-50
2022/03/15 09:21:20;;;;;;;;;;;1.20;63.40;;;;;;5072697;27;81830;-48
2022/03/15 09:23:46;;;;;;;;;;;1.20;63.40;;;;;;5075342;27;82634;-48
2022/03/15 09:26:12;;;;;;;;;;;1.20;63.40;;;;;;5072039;27;82686;-48
2022/03/15 09:28:38;;;;;;;;;;;1.20;63.50;;;;;;5072571;27;84138;-50
2022/03/15 09:31:04;;;;;;;;;;;1.20;63.50;;;;;;5072301;27;83713;-47
2022/03/15 09:33:30;;;;;;;;;;;1.30;63.60;;;;;;5072474;27;81917;-48
2022/03/15 09:35:56;;;;;;;;;;;1.30;63.40;;;;;;5072621;27;82193;-48
2022/03/15 09:38:23;;;;;;;;;;;1.30;63.30;;;;;;5072558;27;82097;-48
2022/03/15 09:40:52;;;;;;;;;;;1.30;63.30;;;;;;5072561;27;82099;-49
2022/03/15 09:43:22;;;;;;;;;;;1.30;63.60;;;;;;5072900;27;82086;-48
2022/03/15 09:45:49;;;;;;;;;;;1.30;64.10;;;;;;5074910;27;83590;-48
2022/03/15 09:48:17;;;;;;;;;;;1.30;64.00;;;;;;5072354;27;81908;-48
2022/03/15 09:50:46;;;;;;;;;;;1.30;63.60;;;;;;5071346;27;83951;-48
2022/03/15 09:53:12;;;;;;;;;;;1.30;63.40;;;;;;5072579;27;81734;-49
2022/03/15 09:55:37;;;;;;;;;;;1.40;63.40;;;;;;5072529;27;81887;-48
2022/03/15 09:58:04;;;;;;;;;;;1.40;63.60;;;;;;5071774;27;82884;-48
2022/03/15 10:00:30;;;;;;;;;;;1.40;63.40;;;;;;5072134;27;81822;-48
2022/03/15 10:02:55;;;;;;;;;;;1.40;63.50;;;;;;5071802;27;82702;-48
2022/03/15 10:05:21;;;;;;;;;;;1.40;63.80;;;;;;5071930;27;83289;-48
2022/03/15 10:07:47;;;;;;;;;;;1.40;63.80;;;;;;5075282;27;81228;-48
2022/03/15 10:10:14;;;;;;;;;;;1.40;63.60;;;;;;5071491;27;83477;-48
2022/03/15 10:12:40;;;;;;;;;;;1.50;63.70;;;;;;5072189;27;82003;-48
2022/03/15 10:15:10;;;;;;;;;;;1.50;63.60;;;;;;5071363;27;83246;-48
2022/03/15 10:17:46;;;;;;;;;;;1.50;63.40;;;;;;5072038;27;82451;-48
2022/03/15 10:20:13;;;;;;;;;;;1.50;63.50;;;;;;5071778;27;81910;-48
2022/03/15 10:22:49;;;;;;;;;;;1.50;63.50;;;;;;5071779;27;83003;-48
2022/03/15 10:25:16;;;;;;;;;;;1.50;63.40;;;;;;5071518;27;83475;-49
2022/03/15 10:27:41;;;;;;;;;;;1.50;63.40;;;;;;5071796;27;81922;-48
2022/03/15 10:30:08;;;;;;;;;;;1.60;63.40;;;;;;5074550;27;82052;-48
2022/03/15 10:32:34;;;;;;;;;;;1.60;63.50;;;;;;5072042;27;80926;-48
2022/03/15 10:35:09;;;;;;;;;;;1.60;63.50;;;;;;5071668;27;81865;-48
2022/03/15 10:37:37;;;;;;;;;;;1.60;63.50;;;;;;5071364;27;83374;-48
2022/03/15 10:40:03;;;;;;;;;;;1.70;63.70;;;;;;5070988;27;82974;-48
2022/03/15 10:42:29;;;;;;;;;;;1.70;64.30;;;;;;5071484;27;82931;-49
2022/03/15 10:44:57;;;;;;;;;;;1.70;64.10;;;;;;5071146;27;83782;-48
2022/03/15 10:47:23;;;;;;;;;;;1.70;64.10;;;;;;5070799;27;82113;-48
2022/03/15 10:49:48;;;;;;;;;;;1.80;64.00;;;;;;5071413;27;82850;-48
2022/03/15 10:52:28;;;;;;;;;;;1.80;63.40;;;;;;5073812;27;82598;-48
2022/03/15 10:54:54;;;;;;;;;;;1.80;63.60;;;;;;5071250;27;82845;-48
2022/03/15 10:57:20;;;;;;;;;;;1.80;62.80;;;;;;5071852;27;81534;-48
2022/03/15 10:59:45;;;;;;;;;;;1.90;63.30;;;;;;5071488;27;81845;-49
2022/03/15 11:02:13;;;;;;;;;;;1.90;63.00;;;;;;5071147;27;82467;-48
2022/03/15 11:04:46;;;;;;;;;;;1.90;62.90;;;;;;5070484;27;83707;-48
2022/03/15 11:07:13;;;;;;;;;;;1.90;63.00;;;;;;5071153;27;82083;-48
2022/03/15 11:09:39;;;;;;;;;;;2.00;62.60;;;;;;5070758;27;82909;-49
2022/03/15 11:12:06;;;;;;;;;;;2.00;62.40;;;;;;5073391;27;83896;-48
2022/03/15 11:14:40;;;;;;;;;;;2.00;62.30;;;;;;5070626;27;82653;-48
2022/03/15 11:17:12;;;;;;;;;;;2.10;62.50;;;;;;5070474;27;83578;-48
2022/03/15 11:19:39;;;;;;;;;;;2.10;62.30;;;;;;5071041;27;82150;-48
2022/03/15 11:22:05;;;;;;;;;;;2.10;62.50;;;;;;5071455;27;82736;-49
2022/03/15 11:24:34;;;;;;;;;;;2.10;63.30;;;;;;5070711;27;82663;-48
2022/03/15 11:27:01;;;;;;;;;;;2.20;62.70;;;;;;5070611;27;82142;-48
2022/03/15 11:29:27;;;;;;;;;;;2.20;62.90;;;;;;5070173;27;83067;-49
2022/03/15 11:31:54;;;;;;;;;;;2.20;62.50;;;;;;5070503;27;82402;-48
2022/03/15 11:34:20;;;;;;;;;;;2.30;62.60;;;;;;5073406;27;81733;-48
2022/03/15 11:36:46;;;;;;;;;;;2.30;62.70;;;;;;5070500;27;83368;-48
2022/03/15 11:39:12;;;;;;;;;;;2.30;62.10;;;;;;5070725;27;82180;-48
2022/03/15 11:41:38;;;;;;;;;;;2.40;62.50;;;;;;5070935;27;81812;-48
2022/03/15 11:44:27;;;;;;;;;;;2.40;62.30;;;;;;5070332;27;83553;-48
2022/03/15 11:47:02;;;;;;;;;;;2.40;62.70;;;;;;5070754;27;81071;-48
2022/03/15 11:49:32;;;;;;;;;;;2.40;62.90;;;;;;5070766;27;81877;-48
2022/03/15 11:52:04;;;;;;;;;;;2.50;63.30;;;;;;5070062;27;83622;-48
2022/03/15 11:54:36;;;;;;;;;;;2.50;63.30;;;;;;5069597;27;82668;-48
2022/03/15 11:57:17;;;;;;;;;;;2.50;62.80;;;;;;5073269;27;82502;-48
2022/03/15 11:59:50;;;;;;;;;;;2.60;62.20;;;;;;5069668;27;82175;-49
2022/03/15 12:02:27;;;;;;;;;;;2.60;62.90;;;;;;5070535;27;82126;-49
2022/03/15 12:04:53;;;;;;;;;;;2.60;63.40;;;;;;5069958;27;83790;-49
2022/03/15 12:07:38;;;;;;;;;;;2.70;63.40;;;;;;5070456;27;82084;-48
2022/03/15 12:10:07;;;;;;;;;;;2.70;63.30;;;;;;5070021;27;82035;-48
2022/03/15 12:12:33;;;;;;;;;;;2.70;63.50;;;;;;5070432;27;81902;-48
2022/03/15 12:15:11;;;;;;;;;;;2.80;63.50;;;;;;5070007;27;81848;-47
2022/03/15 12:17:40;;;;;;;;;;;2.80;63.60;;;;;;5070155;27;81868;-48
2022/03/15 12:20:20;;;;;;;;;;;2.80;64.20;;;;;;5071922;27;84509;-47
2022/03/15 12:22:57;;;;;;;;;;;2.80;63.50;;;;;;5070040;27;83840;-47
2022/03/15 12:25:33;;;;;;;;;;;2.90;63.70;;;;;;5069691;27;82805;-47
2022/03/15 12:28:02;;;;;;;;;;;2.90;64.20;;;;;;5073364;27;81980;-50
2022/03/15 12:30:29;;;;;;;;;;;2.90;63.50;;;;;;5073671;27;82874;-47
2022/03/15 12:32:55;;;;;;;;;;;3.00;64.00;;;;;;5073414;27;83690;-50
2022/03/15 12:35:25;;;;;;;;;;;3.00;63.80;;;;;;5073737;27;81825;-47
2022/03/15 12:37:51;;;;;;;;;;;3.00;63.40;;;;;;5073803;27;83150;-48
2022/03/15 12:40:17;;;;;;;;;;;3.00;63.80;;;;;;5073258;27;83565;-48
2022/03/15 12:42:58;;;;;;;;;;;3.10;64.10;;;;;;5076114;27;81795;-48
2022/03/15 12:45:24;;;;;;;;;;;3.10;64.20;;;;;;5072419;27;84464;-48
2022/03/15 12:47:51;;;;;;;;;;;3.10;63.60;;;;;;5073557;27;82006;-47
2022/03/15 12:50:18;;;;;;;;;;;3.20;63.40;;;;;;5073254;27;82861;-48
2022/03/15 12:52:45;;;;;;;;;;;3.20;63.10;;;;;;5073036;27;82555;-48
2022/03/15 12:55:22;;;;;;;;;;;3.20;63.10;;;;;;5073157;27;82186;-47
2022/03/15 12:58:03;;;;;;;;;;;3.30;63.70;;;;;;5073211;27;82728;-48
2022/03/15 13:00:31;;;;;;;;;;;3.30;63.80;;;;;;5073113;27;83351;-48
2022/03/15 13:02:57;;;;;;;;;;;3.30;63.60;;;;;;5073563;27;81098;-49
2022/03/15 13:05:23;;;;;;;;;;;3.40;63.60;;;;;;5075641;27;82094;-49
2022/03/15 13:07:51;;;;;;;;;;;3.40;63.60;;;;;;5072932;27;81811;-48
2022/03/15 13:10:24;;;;;;;;;;;3.40;63.40;;;;;;5071883;27;82862;-47
2022/03/15 13:12:53;;;;;;;;;;;3.50;63.40;;;;;;5072351;27;83418;-47
2022/03/15 13:15:20;;;;;;;;;;;3.50;63.50;;;;;;5072811;27;81812;-48
2022/03/15 13:17:59;;;;;;;;;;;3.50;63.50;;;;;;5072785;27;82049;-47
2022/03/15 13:20:29;;;;;;;;;;;3.60;63.50;;;;;;5072587;27;82520;-47
2022/03/15 13:23:03;;;;;;;;;;;3.60;63.50;;;;;;5072729;27;81812;-48
2022/03/15 13:25:45;;;;;;;;;;;3.70;63.60;;;;;;5075204;27;82927;-48
2022/03/15 13:28:26;;;;;;;;;;;3.70;63.50;;;;;;5073267;27;81136;-47
2022/03/15 13:31:07;;;;;;;;;;;3.70;63.60;;;;;;5072614;27;81794;-47
2022/03/15 13:33:35;;;;;;;;;;;3.70;63.50;;;;;;5072405;27;83241;-48
2022/03/15 13:36:04;;;;;;;;;;;3.80;63.40;;;;;;5071867;27;82778;-47
2022/03/15 13:38:30;;;;;;;;;;;3.80;63.50;;;;;;5071800;27;83635;-47
2022/03/15 13:40:57;;;;;;;;;;;3.80;63.40;;;;;;5072273;27;85157;-47
2022/03/15 13:43:22;;;;;;;;;;;3.90;63.50;;;;;;5072686;27;81975;-47
2022/03/15 13:45:49;;;;;;;;;;;3.90;63.50;;;;;;5072557;27;82838;-47
2022/03/15 13:48:29;;;;;;;;;;;3.90;63.70;;;;;;5075000;27;82518;-47
2022/03/15 13:50:57;;;;;;;;;;;4.00;63.80;;;;;;5072278;27;82930;-48
2022/03/15 13:53:24;;;;;;;;;;;4.00;63.90;;;;;;5072587;27;82453;-47
2022/03/15 13:55:51;;;;;;;;;;;4.00;64.00;;;;;;5072317;27;81718;-47
2022/03/15 13:58:28;;;;;;;;;;;4.00;63.10;;;;;;5072242;27;82964;-50
2022/03/15 14:01:01;;;;;;;;;;;4.10;63.80;;;;;;5071428;27;84331;-47
2022/03/15 14:03:29;;;;;;;;;;;4.10;63.80;;;;;;5072202;27;81797;-48
2022/03/15 14:06:03;;;;;;;;;;;4.20;63.80;;;;;;5072167;27;81913;-47
2022/03/15 14:08:29;;;;;;;;;;;4.20;63.90;;;;;;5071587;27;82565;-47
2022/03/15 14:10:55;;;;;;;;;;;4.20;63.90;;;;;;5074671;27;81936;-48
2022/03/15 14:13:28;;;;;;;;;;;4.30;64.00;;;;;;5071825;27;82377;-47
2022/03/15 14:15:59;;;;;;;;;;;4.30;64.20;;;;;;5071541;27;81827;-48
2022/03/15 14:18:25;;;;;;;;;;;4.30;64.40;;;;;;5072410;27;82917;-51
2022/03/15 14:20:51;;;;;;;;;;;4.40;64.30;;;;;;5071664;27;83430;-48
2022/03/15 14:23:17;;;;;;;;;;;4.40;64.20;;;;;;5071656;27;81821;-48
2022/03/15 14:25:44;;;;;;;;;;;4.40;64.20;;;;;;5071194;27;82817;-48
2022/03/15 14:28:16;;;;;;;;;;;4.50;64.20;;;;;;5071576;27;83480;-49
2022/03/15 14:30:43;;;;;;;;;;;4.50;64.10;;;;;;5071816;27;82002;-48
2022/03/15 14:33:13;;;;;;;;;;;4.50;64.10;;;;;;5074250;27;82186;-49